Time;durP1;ratioP1;P1;durP2;ratioP2;P2;SDS_P1;SDS_P2;PMS_P1;PMS_P2;Temp;Humidity;BMP_temperature;BMP_pressure;BME280_temperature;BME280_humidity;BME280_pressure;Samples;Min_cycle;Max_cycle;Signal;HPM_P1;HPM_P2
2022/08/18 00:00:11;;;;;;;13.00;11.70;;;21.90;99.90;;;;;;5032054;28;20449;-74
2022/08/18 00:02:39;;;;;;;14.23;13.00;;;21.80;99.90;;;;;;5042383;28;20456;-74
2022/08/18 00:05:06;;;;;;;13.97;12.70;;;21.80;99.90;;;;;;5041317;28;20488;-74
2022/08/18 00:07:34;;;;;;;14.03;12.73;;;21.70;99.90;;;;;;5035896;28;20776;-74
2022/08/18 00:10:04;;;;;;;14.47;13.33;;;21.70;99.90;;;;;;5041741;28;20518;-74
2022/08/18 00:12:37;;;;;;;15.20;13.83;;;21.70;99.90;;;;;;5057213;28;20454;-75
2022/08/18 00:15:06;;;;;;;13.63;12.43;;;21.60;99.90;;;;;;5038933;28;20537;-73
2022/08/18 00:17:34;;;;;;;16.87;15.10;;;21.50;99.90;;;;;;5032214;28;20453;-75
2022/08/18 00:20:03;;;;;;;13.60;12.50;;;21.50;99.90;;;;;;5050913;28;20470;-74
2022/08/18 00:22:30;;;;;;;15.03;13.73;;;21.50;99.90;;;;;;5044798;28;20445;-74
2022/08/18 00:25:35;;;;;;;15.37;13.87;;;21.50;99.90;;;;;;5034870;28;20471;-74
2022/08/18 00:28:04;;;;;;;14.87;13.47;;;21.50;99.90;;;;;;5032287;28;20439;-74
2022/08/18 00:30:32;;;;;;;14.57;13.17;;;21.50;99.90;;;;;;5040567;28;20449;-73
2022/08/18 00:33:01;;;;;;;15.67;14.37;;;21.50;99.90;;;;;;5040260;28;20931;-73
2022/08/18 00:35:31;;;;;;;16.23;14.73;;;21.40;99.90;;;;;;5044467;28;20495;-74
2022/08/18 00:38:01;;;;;;;16.50;14.90;;;21.40;99.90;;;;;;5042147;28;20824;-73
2022/08/18 00:40:32;;;;;;;17.77;16.00;;;21.30;99.90;;;;;;5039632;28;20466;-74
2022/08/18 00:43:23;;;;;;;18.37;16.33;;;21.20;99.90;;;;;;5034440;28;20576;-75
2022/08/18 00:45:50;;;;;;;15.57;14.17;;;21.10;99.90;;;;;;5032457;28;21085;-75
2022/08/18 00:48:17;;;;;;;17.97;16.37;;;21.10;99.90;;;;;;5024181;28;20479;-73
2022/08/18 00:50:50;;;;;;;25.53;18.57;;;21.00;99.90;;;;;;5040680;28;20524;-75
2022/08/18 00:53:22;;;;;;;21.97;19.80;;;20.90;99.90;;;;;;5036105;28;20503;-75
2022/08/18 00:55:51;;;;;;;23.57;21.13;;;20.70;99.90;;;;;;5044800;28;20553;-76
2022/08/18 00:58:29;;;;;;;20.90;18.57;;;20.60;99.90;;;;;;5040373;28;20439;-76
2022/08/18 01:00:56;;;;;;;21.07;19.20;;;20.50;99.90;;;;;;5034575;28;20567;-74
2022/08/18 01:03:24;;;;;;;22.73;20.57;;;20.50;99.90;;;;;;5040193;28;20862;-75
2022/08/18 01:05:56;;;;;;;20.80;18.73;;;20.40;99.90;;;;;;5044925;28;20478;-75
2022/08/18 01:08:23;;;;;;;22.77;20.40;;;20.40;99.90;;;;;;5043333;28;20490;-76
2022/08/18 01:10:51;;;;;;;23.83;19.70;;;20.30;99.90;;;;;;5043858;28;20489;-75
2022/08/18 01:13:19;;;;;;;23.07;20.10;;;20.20;99.90;;;;;;5037165;28;20474;-74
2022/08/18 01:15:47;;;;;;;24.23;21.73;;;20.20;99.90;;;;;;5045061;28;20531;-75
2022/08/18 01:23:54;;;;;;;27.10;24.30;;;20.10;99.90;;;;;;5022998;28;21330;-73
2022/08/18 01:26:23;;;;;;;26.70;23.93;;;20.10;99.90;;;;;;5038868;28;20492;-75
2022/08/18 01:28:51;;;;;;;26.10;22.60;;;20.00;99.90;;;;;;5035657;28;20457;-74
2022/08/18 01:31:36;;;;;;;26.93;24.13;;;20.00;99.90;;;;;;5043433;28;20455;-75
2022/08/18 01:34:05;;;;;;;26.77;24.13;;;20.00;99.90;;;;;;5024711;28;20569;-75
2022/08/18 01:36:36;;;;;;;28.93;25.83;;;20.00;99.90;;;;;;5037296;28;20443;-75
2022/08/18 01:39:05;;;;;;;35.93;30.50;;;20.00;99.90;;;;;;5039572;28;20443;-74
2022/08/18 01:41:32;;;;;;;48.43;37.47;;;20.00;99.90;;;;;;5037054;28;20527;-76
2022/08/18 01:44:00;;;;;;;45.73;34.93;;;20.00;99.90;;;;;;5029813;28;20533;-75
2022/08/18 01:46:28;;;;;;;53.13;40.13;;;20.00;99.90;;;;;;5036063;28;20511;-75
2022/08/18 01:48:57;;;;;;;56.50;42.73;;;20.10;99.90;;;;;;5043770;28;20478;-74
2022/08/18 01:51:24;;;;;;;67.70;46.33;;;20.00;99.90;;;;;;5043553;28;20443;-75
2022/08/18 01:53:51;;;;;;;60.90;44.70;;;20.10;99.90;;;;;;5050236;28;20473;-74
2022/08/18 01:56:19;;;;;;;61.20;42.47;;;20.10;99.90;;;;;;5032487;28;20457;-74
2022/08/18 01:58:47;;;;;;;69.53;45.03;;;20.10;99.90;;;;;;5042481;28;20468;-74
2022/08/18 02:01:14;;;;;;;69.40;48.23;;;20.20;99.90;;;;;;5030088;28;20894;-72
2022/08/18 02:03:44;;;;;;;69.13;46.10;;;20.20;99.90;;;;;;5036335;28;20463;-76
2022/08/18 02:06:14;;;;;;;64.43;45.53;;;20.20;99.90;;;;;;5030267;28;20596;-75
2022/08/18 02:08:41;;;;;;;74.80;49.40;;;20.10;99.90;;;;;;5046325;28;20484;-75
2022/08/18 02:11:10;;;;;;;71.80;50.17;;;20.20;99.90;;;;;;5040126;28;20488;-74
2022/08/18 02:13:39;;;;;;;62.63;42.10;;;20.20;99.90;;;;;;5031561;28;20473;-75
2022/08/18 02:16:06;;;;;;;63.43;44.67;;;20.20;99.90;;;;;;5040236;28;21061;-76
2022/08/18 02:18:36;;;;;;;59.33;40.13;;;20.20;99.90;;;;;;5040516;28;20439;-74
2022/08/18 02:21:08;;;;;;;64.93;41.13;;;20.20;99.90;;;;;;5055260;28;20444;-74
2022/08/18 02:23:35;;;;;;;55.07;39.30;;;20.30;99.90;;;;;;5046534;28;20510;-75
2022/08/18 02:26:05;;;;;;;61.00;42.00;;;20.30;99.90;;;;;;5056984;28;20549;-76
2022/08/18 02:28:32;;;;;;;80.40;49.07;;;20.20;99.90;;;;;;5045341;28;20816;-75
2022/08/18 02:31:05;;;;;;;81.03;48.30;;;20.20;99.90;;;;;;5031451;28;20442;-75
2022/08/18 02:33:32;;;;;;;80.53;45.27;;;20.10;99.90;;;;;;5031791;28;20514;-74
2022/08/18 02:35:59;;;;;;;69.90;45.50;;;20.00;99.90;;;;;;5039674;28;20504;-75
2022/08/18 02:38:27;;;;;;;71.40;44.67;;;20.00;99.90;;;;;;5043571;28;20793;-75
2022/08/18 02:40:56;;;;;;;71.00;41.10;;;19.90;99.90;;;;;;5045731;28;20536;-75
2022/08/18 02:43:23;;;;;;;64.73;39.00;;;19.90;99.90;;;;;;5042189;28;20472;-74
2022/08/18 02:45:51;;;;;;;63.00;41.43;;;19.80;99.90;;;;;;5037972;28;20497;-75
2022/08/18 02:48:22;;;;;;;67.23;40.10;;;19.90;99.90;;;;;;5053922;28;20470;-76
2022/08/18 02:50:50;;;;;;;52.43;36.40;;;19.90;99.90;;;;;;5044740;28;21033;-74
2022/08/18 02:53:21;;;;;;;57.27;37.77;;;19.90;99.90;;;;;;5044450;28;20478;-73
2022/08/18 02:55:49;;;;;;;53.90;37.20;;;19.90;99.90;;;;;;5026896;28;20797;-75
2022/08/18 02:58:15;;;;;;;52.47;38.00;;;19.90;99.90;;;;;;5023571;28;20483;-75
2022/08/18 03:00:47;;;;;;;46.67;35.37;;;19.90;99.90;;;;;;5035712;28;20513;-75
2022/08/18 03:03:14;;;;;;;40.13;31.27;;;19.90;99.90;;;;;;5039166;28;20496;-76
2022/08/18 03:05:43;;;;;;;46.20;32.33;;;19.90;99.90;;;;;;5040354;28;20569;-75
2022/08/18 03:08:10;;;;;;;45.10;32.67;;;19.90;99.90;;;;;;5047416;28;20450;-74
2022/08/18 03:10:44;;;;;;;42.47;32.10;;;19.90;99.90;;;;;;5053259;28;20476;-75
2022/08/18 03:13:12;;;;;;;43.33;30.50;;;20.00;99.90;;;;;;5051274;28;20557;-75
2022/08/18 03:15:45;;;;;;;43.80;33.97;;;20.00;99.90;;;;;;5047157;28;20447;-74
2022/08/18 03:18:13;;;;;;;38.50;29.53;;;19.90;99.90;;;;;;5050213;28;20523;-75
2022/08/18 03:20:44;;;;;;;38.30;31.97;;;19.90;99.90;;;;;;5045041;28;20940;-75
2022/08/18 03:23:11;;;;;;;40.90;32.50;;;19.90;99.90;;;;;;5043853;28;20808;-75
2022/08/18 03:25:54;;;;;;;37.97;30.00;;;20.00;99.90;;;;;;5039017;28;20452;-76
2022/08/18 03:28:21;;;;;;;39.97;29.43;;;20.00;99.90;;;;;;5036858;28;20533;-73
2022/08/18 03:30:48;;;;;;;34.80;29.13;;;20.00;99.90;;;;;;5035111;28;20475;-74
2022/08/18 03:33:16;;;;;;;31.27;26.43;;;20.10;99.90;;;;;;5037837;28;20493;-75
2022/08/18 03:35:44;;;;;;;33.97;25.33;;;20.10;99.90;;;;;;5041846;28;20446;-74
2022/08/18 03:38:11;;;;;;;30.00;23.93;;;20.10;99.90;;;;;;5040557;28;20533;-75
2022/08/18 03:40:39;;;;;;;34.83;27.27;;;20.10;99.90;;;;;;5026431;28;20797;-74
2022/08/18 03:43:07;;;;;;;30.87;25.50;;;20.20;99.90;;;;;;5027136;28;20531;-75
2022/08/18 03:45:34;;;;;;;33.07;25.63;;;20.20;99.90;;;;;;5034146;28;20527;-74
2022/08/18 03:48:03;;;;;;;35.90;25.20;;;20.30;99.90;;;;;;5026867;28;20871;-75
2022/08/18 03:50:31;;;;;;;37.10;26.90;;;20.30;99.90;;;;;;5034237;28;20523;-74
2022/08/18 03:52:59;;;;;;;35.37;29.20;;;20.20;99.90;;;;;;5034784;28;20552;-74
2022/08/18 03:55:28;;;;;;;37.03;29.60;;;20.30;99.90;;;;;;5037104;28;20471;-74
2022/08/18 03:58:00;;;;;;;37.43;29.70;;;20.30;99.90;;;;;;5038037;28;20450;-73
2022/08/18 04:00:28;;;;;;;33.80;27.23;;;20.30;99.90;;;;;;5038000;28;20450;-75
2022/08/18 04:02:56;;;;;;;36.50;28.87;;;20.30;99.90;;;;;;5035148;28;20476;-75
2022/08/18 04:05:24;;;;;;;30.80;27.30;;;20.30;99.90;;;;;;5035588;28;20444;-75
2022/08/18 04:07:50;;;;;;;36.70;30.40;;;20.30;99.90;;;;;;5032018;28;20478;-75
2022/08/18 04:10:37;;;;;;;37.67;29.40;;;20.30;99.90;;;;;;5041805;28;20482;-75
2022/08/18 04:13:05;;;;;;;35.23;29.27;;;20.30;99.90;;;;;;5036931;28;20471;-75
2022/08/18 04:15:34;;;;;;;38.17;30.70;;;20.30;99.90;;;;;;5034777;28;20431;-75
2022/08/18 04:18:03;;;;;;;30.87;27.53;;;20.30;99.90;;;;;;5034565;28;20506;-74
2022/08/18 04:20:31;;;;;;;35.00;26.10;;;20.30;99.90;;;;;;5032756;28;20441;-74
2022/08/18 04:23:04;;;;;;;33.60;27.40;;;20.30;99.90;;;;;;5018906;28;20484;-74
2022/08/18 04:25:31;;;;;;;37.20;27.77;;;20.30;99.90;;;;;;5030033;28;20444;-74
2022/08/18 04:28:19;;;;;;;32.00;25.87;;;20.40;99.90;;;;;;5047010;28;20483;-75
2022/08/18 04:30:46;;;;;;;39.33;27.63;;;20.40;99.90;;;;;;5037927;28;20440;-74
2022/08/18 04:33:21;;;;;;;38.73;30.07;;;20.40;99.90;;;;;;5034596;28;21020;-76
2022/08/18 04:35:48;;;;;;;35.47;27.77;;;20.40;99.90;;;;;;5025722;28;20466;-74
2022/08/18 04:38:17;;;;;;;42.40;33.97;;;20.40;99.90;;;;;;5040867;28;20497;-75
2022/08/18 04:40:44;;;;;;;43.60;36.37;;;20.50;99.90;;;;;;5028344;28;20800;-75
2022/08/18 04:43:14;;;;;;;48.30;35.27;;;20.50;99.90;;;;;;5042081;28;20468;-74
2022/08/18 04:45:43;;;;;;;45.90;31.77;;;20.50;99.90;;;;;;5033494;28;20485;-74
2022/08/18 04:48:10;;;;;;;40.40;29.67;;;20.50;99.90;;;;;;5033439;28;20486;-74
2022/08/18 04:50:39;;;;;;;47.03;32.80;;;20.60;99.90;;;;;;5041645;28;20485;-74
2022/08/18 04:55:52;;;;;;;39.53;28.30;;;20.70;99.90;;;;;;5034728;28;20841;-75
2022/08/18 04:58:44;;;;;;;34.93;26.40;;;20.70;99.90;;;;;;5025668;28;20510;-74
2022/08/18 05:01:12;;;;;;;40.33;30.60;;;20.80;99.90;;;;;;5025713;28;20495;-76
2022/08/18 05:03:50;;;;;;;36.13;27.90;;;20.90;99.90;;;;;;5033273;28;20525;-76
2022/08/18 05:06:18;;;;;;;31.60;25.67;;;20.90;99.90;;;;;;5033312;28;20567;-75
2022/08/18 05:08:47;;;;;;;41.23;26.73;;;20.80;99.90;;;;;;5041118;28;20498;-75
2022/08/18 05:11:14;;;;;;;28.57;24.30;;;20.80;99.90;;;;;;5033028;28;20863;-76
2022/08/18 05:13:41;;;;;;;31.60;26.33;;;20.80;99.90;;;;;;5039645;28;20504;-74
2022/08/18 05:16:08;;;;;;;42.53;29.13;;;20.80;99.90;;;;;;5039033;28;20462;-73
2022/08/18 05:18:39;;;;;;;32.03;26.40;;;20.90;99.90;;;;;;5042578;28;20448;-73
2022/08/18 05:21:10;;;;;;;26.93;23.40;;;20.80;99.90;;;;;;5045324;28;20993;-76
2022/08/18 05:23:37;;;;;;;30.40;24.00;;;20.90;99.90;;;;;;5036748;28;20476;-74
2022/08/18 05:26:04;;;;;;;31.07;22.03;;;20.90;99.90;;;;;;5031694;28;20952;-74
2022/08/18 05:28:36;;;;;;;32.20;20.50;;;21.00;99.90;;;;;;5038581;28;20490;-73
2022/08/18 05:31:08;;;;;;;25.03;19.50;;;21.10;99.90;;;;;;5033137;28;20439;-72
2022/08/18 05:33:38;;;;;;;26.90;20.20;;;21.10;99.90;;;;;;5030277;28;20562;-74
2022/08/18 05:36:12;;;;;;;22.30;19.60;;;21.10;99.90;;;;;;5041798;28;20460;-73
2022/08/18 05:38:57;;;;;;;24.70;19.83;;;21.20;99.90;;;;;;5041686;28;21007;-74
2022/08/18 05:41:27;;;;;;;22.20;19.77;;;21.20;99.90;;;;;;5027137;28;20454;-74
2022/08/18 05:43:56;;;;;;;22.40;19.90;;;21.20;99.90;;;;;;5038535;28;20469;-72
2022/08/18 05:46:38;;;;;;;24.57;21.03;;;21.30;99.90;;;;;;5041000;28;20445;-74
2022/08/18 05:49:07;;;;;;;23.07;19.67;;;21.30;99.90;;;;;;5031190;28;20432;-73
2022/08/18 05:51:42;;;;;;;24.20;21.60;;;21.10;99.90;;;;;;5040736;28;21031;-73
2022/08/18 05:56:57;;;;;;;24.00;18.80;;;21.10;99.90;;;;;;5035742;28;20469;-73
2022/08/18 05:59:27;;;;;;;22.10;18.67;;;21.10;99.90;;;;;;5032665;28;20512;-73
2022/08/18 06:02:07;;;;;;;23.97;19.90;;;21.20;99.90;;;;;;5040780;28;20486;-71
2022/08/18 06:04:51;;;;;;;25.57;21.30;;;21.20;99.90;;;;;;5050259;28;20481;-77
2022/08/18 06:07:23;;;;;;;30.87;22.17;;;21.30;99.90;;;;;;5035047;28;20889;-75
2022/08/18 06:09:54;;;;;;;25.27;19.50;;;21.20;99.90;;;;;;5030354;28;20553;-76
2022/08/18 06:12:27;;;;;;;28.67;18.97;;;21.20;99.90;;;;;;5030473;28;20464;-77
2022/08/18 06:15:10;;;;;;;23.33;19.57;;;21.40;99.90;;;;;;5069563;22;20526;-79
2022/08/18 06:17:53;;;;;;;26.27;19.07;;;21.40;99.90;;;;;;5072013;28;20539;-82
2022/08/18 06:20:34;;;;;;;29.90;20.30;;;21.60;99.90;;;;;;5089998;28;20591;-81
2022/08/18 06:23:17;;;;;;;28.70;23.90;;;21.60;99.90;;;;;;5088112;28;20490;-81
2022/08/18 06:26:02;;;;;;;31.10;25.70;;;21.70;99.90;;;;;;5082222;28;20987;-83
2022/08/18 06:28:40;;;;;;;30.67;23.97;;;21.80;99.90;;;;;;5085642;28;20507;-82
2022/08/18 06:31:17;;;;;;;17.60;14.77;;;21.80;99.90;;;;;;5074075;28;20502;-81
2022/08/18 06:33:59;;;;;;;30.33;21.43;;;21.90;99.90;;;;;;5085808;28;20470;-81
2022/08/18 06:36:37;;;;;;;26.20;21.40;;;21.70;99.90;;;;;;5093230;28;20469;-82
2022/08/18 06:39:16;;;;;;;32.17;18.97;;;21.80;99.90;;;;;;5096485;28;20443;-81
2022/08/18 06:41:47;;;;;;;28.67;17.23;;;21.80;99.90;;;;;;5096067;28;20467;-82
2022/08/18 06:44:21;;;;;;;21.57;15.77;;;21.80;99.90;;;;;;5093674;28;20448;-82
2022/08/18 06:46:52;;;;;;;20.90;16.37;;;21.90;99.90;;;;;;5081858;28;20488;-82
2022/08/18 06:49:38;;;;;;;24.43;15.30;;;22.10;99.90;;;;;;5090556;28;20487;-82
2022/08/18 06:52:26;;;;;;;23.77;15.80;;;22.30;99.90;;;;;;5102540;28;20467;-82
2022/08/18 06:54:54;;;;;;;22.90;14.60;;;22.50;99.90;;;;;;5089110;28;20436;-82
2022/08/18 06:57:26;;;;;;;20.37;15.47;;;22.90;99.90;;;;;;5086849;28;20470;-82
2022/08/18 07:00:05;;;;;;;23.17;12.90;;;23.20;99.90;;;;;;5087373;28;20529;-82
2022/08/18 07:02:43;;;;;;;23.67;15.37;;;23.40;99.90;;;;;;5075336;28;20453;-83
2022/08/18 07:05:22;;;;;;;20.53;14.83;;;23.60;99.90;;;;;;5085062;28;20480;-82
2022/08/18 07:08:10;;;;;;;17.00;14.00;;;24.10;99.90;;;;;;5086390;28;20491;-83
2022/08/18 07:10:39;;;;;;;16.63;11.67;;;25.00;99.90;;;;;;5087801;28;20500;-82
2022/08/18 07:13:17;;;;;;;17.17;12.27;;;25.20;99.90;;;;;;5083799;28;20829;-82
2022/08/18 07:15:44;;;;;;;19.77;16.10;;;25.10;99.90;;;;;;5087116;28;20541;-81
2022/08/18 07:18:13;;;;;;;16.87;15.17;;;24.60;99.90;;;;;;5086817;28;20437;-81
2022/08/18 07:20:47;;;;;;;20.33;16.93;;;24.30;99.90;;;;;;5089701;28;20483;-82
2022/08/18 07:23:38;;;;;;;20.17;14.67;;;24.00;99.90;;;;;;5090354;28;20526;-80
2022/08/18 07:26:11;;;;;;;16.27;14.50;;;23.80;99.90;;;;;;5083020;28;20489;-82
2022/08/18 07:28:43;;;;;;;19.53;16.67;;;23.70;99.90;;;;;;5090267;28;20476;-82
2022/08/18 07:31:36;;;;;;;22.03;17.00;;;23.60;99.90;;;;;;5092630;28;20452;-83
2022/08/18 07:34:08;;;;;;;21.33;16.80;;;23.50;99.90;;;;;;5088894;28;20449;-83
2022/08/18 07:36:42;;;;;;;18.63;16.23;;;23.30;99.90;;;;;;5089383;28;20534;-82
2022/08/18 07:39:18;;;;;;;23.77;17.17;;;23.40;99.90;;;;;;5082815;28;20800;-84
2022/08/18 07:41:52;;;;;;;20.30;16.83;;;23.40;99.90;;;;;;5086539;28;20475;-81
2022/08/18 07:44:25;;;;;;;20.13;14.20;;;23.40;99.90;;;;;;5081721;28;20438;-82
2022/08/18 07:46:59;;;;;;;18.00;16.20;;;23.70;99.90;;;;;;5087387;28;20460;-83
2022/08/18 07:49:31;;;;;;;22.87;15.40;;;23.70;99.90;;;;;;5087075;28;20449;-82
2022/08/18 07:52:07;;;;;;;22.33;15.57;;;23.80;99.90;;;;;;5087791;28;20459;-84
2022/08/18 07:54:47;;;;;;;16.37;14.10;;;23.80;99.90;;;;;;5090378;28;20445;-84
2022/08/18 07:57:24;;;;;;;18.97;14.83;;;23.90;99.90;;;;;;5086755;28;20510;-83
2022/08/18 08:00:01;;;;;;;18.90;16.90;;;24.20;99.90;;;;;;5087377;28;20567;-83
2022/08/18 08:02:45;;;;;;;18.70;16.97;;;24.10;99.90;;;;;;5086837;28;20441;-82
2022/08/18 08:05:34;;;;;;;15.67;14.00;;;24.10;99.90;;;;;;5077616;28;20469;-83
2022/08/18 08:08:09;;;;;;;20.73;14.63;;;24.10;99.90;;;;;;5091840;28;20485;-83
2022/08/18 08:10:50;;;;;;;19.03;14.33;;;24.30;99.90;;;;;;5091878;28;20499;-83
2022/08/18 08:13:26;;;;;;;15.67;13.90;;;24.30;99.90;;;;;;5089713;28;20474;-84
2022/08/18 08:16:01;;;;;;;16.60;15.00;;;24.20;99.90;;;;;;5092601;28;20465;-84
2022/08/18 08:18:37;;;;;;;19.77;15.30;;;24.20;99.90;;;;;;5088251;28;20444;-83
2022/08/18 08:21:09;;;;;;;17.57;14.57;;;24.00;99.90;;;;;;5098367;28;20449;-83
2022/08/18 08:23:52;;;;;;;19.17;16.27;;;24.00;99.90;;;;;;5089821;28;20457;-82
2022/08/18 08:26:41;;;;;;;18.30;15.07;;;23.80;99.90;;;;;;5087260;28;20536;-81
2022/08/18 08:29:20;;;;;;;18.80;15.50;;;23.80;99.90;;;;;;5089470;28;20503;-82
2022/08/18 08:31:54;;;;;;;21.70;17.70;;;23.80;99.90;;;;;;5087640;28;20441;-83
2022/08/18 08:34:27;;;;;;;16.27;14.70;;;23.80;99.90;;;;;;5081737;28;20441;-82
2022/08/18 08:37:01;;;;;;;18.03;14.23;;;23.80;99.90;;;;;;5080676;28;20470;-82
2022/08/18 08:39:37;;;;;;;20.50;15.80;;;23.80;99.90;;;;;;5074211;28;20470;-85
2022/08/18 08:42:13;;;;;;;15.67;13.40;;;24.00;99.90;;;;;;5094821;28;20504;-84
2022/08/18 08:44:50;;;;;;;15.23;13.70;;;24.10;99.90;;;;;;5093117;28;20468;-83
2022/08/18 08:47:22;;;;;;;14.70;13.10;;;24.20;99.90;;;;;;5092239;28;20716;-83
2022/08/18 08:49:55;;;;;;;17.80;16.00;;;24.10;99.90;;;;;;5093199;28;20448;-84
2022/08/18 08:52:27;;;;;;;18.10;16.10;;;24.10;99.90;;;;;;5098286;28;20426;-85
2022/08/18 08:54:59;;;;;;;21.13;15.70;;;23.90;99.90;;;;;;5079552;28;20529;-85
2022/08/18 08:57:34;;;;;;;17.57;13.90;;;24.00;99.90;;;;;;5094654;28;20437;-86
2022/08/18 09:00:05;;;;;;;17.00;15.20;;;24.30;99.90;;;;;;5081079;28;20941;-82
2022/08/18 09:02:51;;;;;;;18.90;14.30;;;24.50;99.90;;;;;;5093257;28;20449;-85
2022/08/18 09:05:23;;;;;;;14.67;12.17;;;24.70;99.90;;;;;;5093511;28;20469;-80
2022/08/18 09:08:22;;;;;;;19.27;15.33;;;24.60;99.90;;;;;;5102828;28;20513;-81
2022/08/18 09:11:17;;;;;;;22.47;12.53;;;24.50;99.90;;;;;;5093678;28;20456;-81
2022/08/18 09:14:10;;;;;;;15.33;12.33;;;24.50;99.90;;;;;;5093514;28;20478;-81
2022/08/18 09:16:49;;;;;;;18.23;14.03;;;24.70;99.90;;;;;;5085868;28;20467;-84
2022/08/18 09:19:47;;;;;;;15.97;12.90;;;24.90;99.90;;;;;;5102225;28;20455;-81
2022/08/18 09:22:25;;;;;;;15.33;11.37;;;25.20;99.90;;;;;;5091399;28;20556;-85
2022/08/18 09:24:54;;;;;;;15.30;12.00;;;25.10;99.90;;;;;;5086413;28;20512;-85
2022/08/18 09:27:44;;;;;;;24.10;15.53;;;25.00;99.90;;;;;;5082460;28;20511;-84
2022/08/18 09:30:46;;;;;;;19.57;17.50;;;24.80;99.90;;;;;;5095738;28;21083;-82
2022/08/18 09:33:45;;;;;;;23.03;13.87;;;24.50;99.90;;;;;;5096292;28;20443;-82
2022/08/18 09:36:32;;;;;;;18.40;12.90;;;24.50;99.90;;;;;;5081185;28;21037;-78
2022/08/18 09:41:58;;;;;;;17.70;13.50;;;25.00;99.90;;;;;;5078219;28;20428;-82
2022/08/18 09:45:00;;;;;;;20.10;12.40;;;25.20;99.90;;;;;;5083699;28;20475;-83
2022/08/18 09:47:59;;;;;;;13.03;11.30;;;25.30;99.90;;;;;;5093103;28;20440;-83
2022/08/18 09:50:50;;;;;;;13.73;12.10;;;25.60;99.90;;;;;;5085210;28;20438;-84
2022/08/18 09:53:51;;;;;;;15.20;12.90;;;25.90;99.90;;;;;;5090362;28;20441;-82
2022/08/18 09:56:53;;;;;;;15.67;12.67;;;26.10;99.90;;;;;;5076822;28;20542;-82
2022/08/18 09:59:55;;;;;;;18.57;13.03;;;26.30;99.90;;;;;;5092518;28;20449;-83
2022/08/18 10:03:09;;;;;;;17.17;13.60;;;27.10;99.90;;;;;;5089898;28;20444;-85
2022/08/18 10:05:38;;;;;;;12.50;11.00;;;28.20;99.90;;;;;;5088088;28;20457;-82
2022/08/18 10:08:37;;;;;;;14.40;11.20;;;28.90;99.90;;;;;;5087606;28;20506;-83
2022/08/18 10:11:19;;;;;;;13.03;11.37;;;29.10;99.90;;;;;;5085374;28;20433;-83
2022/08/18 10:13:58;;;;;;;14.33;8.90;;;30.20;97.00;;;;;;5080142;28;20501;-83
2022/08/18 10:16:33;;;;;;;18.60;9.73;;;31.00;95.70;;;;;;5090114;28;20486;-83
2022/08/18 10:19:11;;;;;;;10.50;8.83;;;31.40;93.70;;;;;;5095452;28;20527;-83
2022/08/18 10:22:09;;;;;;;10.00;8.90;;;31.80;92.70;;;;;;5102430;28;20453;-83
2022/08/18 10:24:41;;;;;;;13.13;8.37;;;31.50;91.90;;;;;;5096089;28;20437;-84
2022/08/18 10:27:33;;;;;;;9.93;8.93;;;31.90;91.60;;;;;;5087552;28;20834;-85
2022/08/18 10:30:01;;;;;;;10.80;9.30;;;31.50;91.50;;;;;;5086599;28;20441;-80
2022/08/18 10:32:41;;;;;;;10.90;8.37;;;30.70;92.10;;;;;;5092155;28;20473;-84
2022/08/18 10:35:51;;;;;;;13.10;8.03;;;30.20;93.30;;;;;;5091835;28;20502;-85
2022/08/18 10:38:25;;;;;;;13.97;10.37;;;30.80;93.40;;;;;;5085402;28;20928;-85
2022/08/18 10:41:00;;;;;;;10.57;9.57;;;31.30;91.90;;;;;;5089012;28;20441;-84
2022/08/18 10:43:34;;;;;;;10.40;7.43;;;31.40;91.40;;;;;;5091684;28;20451;-83
2022/08/18 10:46:01;;;;;;;12.03;7.70;;;31.30;91.50;;;;;;5100823;28;20460;-82
2022/08/18 10:48:31;;;;;;;9.13;7.50;;;31.10;91.90;;;;;;5090328;28;20485;-82
2022/08/18 10:51:08;;;;;;;9.07;8.17;;;31.00;92.00;;;;;;5090146;28;20441;-85
2022/08/18 10:53:43;;;;;;;8.87;7.73;;;30.50;92.50;;;;;;5091766;28;20436;-85
2022/08/18 10:56:31;;;;;;;8.93;7.57;;;30.00;93.40;;;;;;5087847;28;20464;-84
2022/08/18 10:59:08;;;;;;;11.90;9.33;;;29.80;93.80;;;;;;5091859;28;20825;-83
2022/08/18 11:01:57;;;;;;;11.00;7.50;;;29.80;93.80;;;;;;5095248;28;20437;-80
2022/08/18 11:04:31;;;;;;;8.50;7.70;;;29.60;94.20;;;;;;5094837;28;20453;-84
2022/08/18 11:07:11;;;;;;;10.57;8.73;;;29.20;94.80;;;;;;5088919;28;20457;-81
2022/08/18 11:09:42;;;;;;;9.00;8.10;;;29.10;94.50;;;;;;5093209;28;20481;-83
2022/08/18 11:12:13;;;;;;;8.00;6.10;;;28.80;95.40;;;;;;5092769;28;20429;-81
2022/08/18 11:15:00;;;;;;;7.17;6.47;;;28.60;95.70;;;;;;5088875;28;20437;-81
2022/08/18 11:17:42;;;;;;;8.27;5.93;;;28.80;95.30;;;;;;5105104;28;20428;-81
2022/08/18 11:20:14;;;;;;;7.57;5.27;;;29.00;94.00;;;;;;5093254;28;20479;-81
2022/08/18 11:22:50;;;;;;;6.07;4.97;;;28.90;94.30;;;;;;5086536;28;20434;-83
2022/08/18 11:25:25;;;;;;;6.63;5.50;;;28.90;93.80;;;;;;5096227;28;20457;-80
2022/08/18 11:27:52;;;;;;;6.83;5.67;;;28.80;94.00;;;;;;5093137;28;20443;-83
2022/08/18 11:30:19;;;;;;;7.80;7.00;;;28.70;94.30;;;;;;5103037;28;20425;-82
2022/08/18 11:32:48;;;;;;;7.23;6.20;;;28.50;95.00;;;;;;5089922;28;20448;-81
2022/08/18 11:35:18;;;;;;;9.10;5.93;;;28.40;95.60;;;;;;5091359;28;20453;-80
2022/08/18 11:37:48;;;;;;;11.97;6.80;;;28.50;96.10;;;;;;5094204;28;20441;-80
2022/08/18 11:40:37;;;;;;;9.87;5.87;;;28.40;96.40;;;;;;5084955;28;20448;-79
2022/08/18 11:43:11;;;;;;;9.77;7.20;;;28.20;97.30;;;;;;5093590;28;20548;-83
2022/08/18 11:45:51;;;;;;;8.50;7.07;;;28.00;98.10;;;;;;5092905;28;20541;-81
2022/08/18 11:48:23;;;;;;;12.53;7.53;;;27.70;99.00;;;;;;5109114;28;20483;-81
2022/08/18 11:51:01;;;;;;;6.93;5.93;;;27.50;99.60;;;;;;5091514;28;20441;-81
2022/08/18 11:53:41;;;;;;;10.40;7.33;;;27.30;99.90;;;;;;5098055;28;20413;-80
2022/08/18 11:56:18;;;;;;;8.17;6.43;;;27.20;99.90;;;;;;5097638;28;20479;-79
2022/08/18 11:58:46;;;;;;;10.13;6.30;;;27.10;99.90;;;;;;5089511;28;20440;-78
2022/08/18 12:01:31;;;;;;;6.97;6.27;;;27.00;99.90;;;;;;5098381;28;20436;-79
2022/08/18 12:04:07;;;;;;;11.07;7.60;;;27.10;99.90;;;;;;5080978;28;20446;-79
2022/08/18 12:06:35;;;;;;;10.50;7.33;;;27.10;99.90;;;;;;5086418;28;20461;-79
2022/08/18 12:09:06;;;;;;;11.30;6.80;;;27.20;99.90;;;;;;5082173;28;20500;-81
2022/08/18 12:11:37;;;;;;;10.33;6.83;;;27.20;99.90;;;;;;5108462;28;20583;-78
2022/08/18 12:14:07;;;;;;;8.47;7.47;;;27.30;99.90;;;;;;5085764;28;20621;-79
2022/08/18 12:16:38;;;;;;;11.00;8.73;;;27.30;99.90;;;;;;5104902;28;20459;-80
2022/08/18 12:19:06;;;;;;;7.37;6.67;;;27.30;99.90;;;;;;5097651;28;20472;-79
2022/08/18 12:21:36;;;;;;;9.00;6.73;;;27.20;99.90;;;;;;5094903;28;20489;-82
2022/08/18 12:24:04;;;;;;;6.53;5.93;;;27.10;99.90;;;;;;5088936;28;20473;-83
2022/08/18 12:26:31;;;;;;;9.03;5.30;;;27.10;99.90;;;;;;5084149;28;20523;-83
2022/08/18 12:28:59;;;;;;;6.77;5.70;;;27.10;98.90;;;;;;5095194;28;20992;-84
2022/08/18 12:31:26;;;;;;;7.80;6.70;;;27.30;98.80;;;;;;5096820;28;20449;-86
2022/08/18 12:33:53;;;;;;;9.93;7.27;;;27.30;98.90;;;;;;5082888;28;20492;-83
2022/08/18 12:36:20;;;;;;;9.77;6.37;;;27.40;98.90;;;;;;5083015;28;21071;-82
2022/08/18 12:38:47;;;;;;;6.60;5.93;;;27.50;98.50;;;;;;5099497;28;20464;-79
2022/08/18 12:41:14;;;;;;;6.13;5.53;;;27.60;98.50;;;;;;5102960;28;20464;-80
2022/08/18 12:43:41;;;;;;;7.07;5.80;;;27.70;98.30;;;;;;5094718;28;20468;-80
2022/08/18 12:46:10;;;;;;;7.63;6.47;;;27.70;98.60;;;;;;5102340;28;20446;-81
2022/08/18 12:48:38;;;;;;;7.90;6.37;;;27.80;98.40;;;;;;5104126;28;20481;-80
2022/08/18 12:51:11;;;;;;;7.87;7.17;;;27.70;98.80;;;;;;5088717;28;20441;-81
2022/08/18 12:53:38;;;;;;;8.07;6.00;;;27.80;98.50;;;;;;5090006;28;20426;-80
2022/08/18 12:56:07;;;;;;;9.37;6.30;;;27.80;98.40;;;;;;5096276;28;20513;-82
2022/08/18 12:58:34;;;;;;;8.00;6.70;;;28.00;97.90;;;;;;5092146;28;20450;-81
2022/08/18 13:01:01;;;;;;;7.50;5.67;;;28.20;97.90;;;;;;5090739;28;20445;-84
2022/08/18 13:03:29;;;;;;;9.93;6.10;;;28.20;97.20;;;;;;5102215;28;20457;-82
2022/08/18 13:05:56;;;;;;;9.77;6.50;;;28.30;96.40;;;;;;5098730;28;20459;-84
2022/08/18 13:08:23;;;;;;;12.30;8.20;;;28.20;96.80;;;;;;5092357;28;20429;-81
2022/08/18 13:10:50;;;;;;;14.50;7.63;;;28.10;97.10;;;;;;5098008;28;20448;-84
2022/08/18 13:13:18;;;;;;;10.43;7.00;;;28.10;97.50;;;;;;5092754;28;20448;-82
2022/08/18 13:15:47;;;;;;;10.83;6.57;;;28.40;97.00;;;;;;5101350;28;20481;-82
2022/08/18 13:18:14;;;;;;;14.40;6.83;;;28.50;96.80;;;;;;5092934;28;20445;-83